Time;durP1;ratioP1;P1;durP2;ratioP2;P2;SDS_P1;SDS_P2;PMS_P1;PMS_P2;Temp;Humidity;BMP_temperature;BMP_pressure;BME280_temperature;BME280_humidity;BME280_pressure;Samples;Min_cycle;Max_cycle;Signal;HPM_P1;HPM_P2
2021/09/30 00:03:54;;;;;;;;;;;20.60;48.00;;;;;;8430618;28;20364;-48
2021/09/30 00:07:54;;;;;;;;;;;20.60;48.00;;;;;;8430023;28;19916;-51
2021/09/30 00:12:02;;;;;;;;;;;20.60;47.90;;;;;;8431236;28;19927;-49
2021/09/30 00:41:42;;;;;;;;;;;20.50;47.90;;;;;;8429276;28;20387;-48
2021/09/30 00:45:56;;;;;;;;;;;20.60;47.90;;;;;;8429534;28;20010;-52
2021/09/30 01:25:48;;;;;;;;;;;20.40;47.80;;;;;;8402887;28;20380;-48
2021/09/30 03:00:00;;;;;;;;;;;20.30;47.60;;;;;;8433248;28;19962;-47
2021/09/30 03:04:01;;;;;;;;;;;20.30;47.50;;;;;;8432879;28;19999;-50
2021/09/30 03:08:01;;;;;;;;;;;20.30;47.60;;;;;;8431798;28;19965;-48
2021/09/30 03:12:02;;;;;;;;;;;20.20;47.50;;;;;;8432306;28;19931;-47
2021/09/30 03:16:08;;;;;;;;;;;20.20;47.50;;;;;;8413887;28;19959;-48
2021/09/30 03:20:27;;;;;;;;;;;20.20;47.50;;;;;;8431577;28;19916;-47
2021/09/30 03:24:28;;;;;;;;;;;20.20;47.50;;;;;;8432112;28;19985;-49
2021/09/30 03:28:29;;;;;;;;;;;20.20;47.50;;;;;;8431030;28;19923;-48
2021/09/30 03:32:30;;;;;;;;;;;20.20;47.50;;;;;;8431680;28;19920;-48
2021/09/30 03:36:31;;;;;;;;;;;20.20;47.50;;;;;;8431414;28;20296;-47
2021/09/30 03:40:32;;;;;;;;;;;20.20;47.50;;;;;;8430926;28;20288;-48
2021/09/30 03:44:32;;;;;;;;;;;20.20;47.50;;;;;;8432002;28;19958;-47
2021/09/30 03:48:33;;;;;;;;;;;20.20;47.50;;;;;;8431151;28;19923;-50
2021/09/30 03:57:08;;;;;;;;;;;20.20;47.50;;;;;;8431206;28;20349;-49
2021/09/30 04:01:08;;;;;;;;;;;20.10;47.50;;;;;;8431511;28;19974;-48
2021/09/30 04:05:09;;;;;;;;;;;20.20;47.50;;;;;;8429827;28;20307;-47
2021/09/30 04:09:10;;;;;;;;;;;20.10;47.50;;;;;;8430631;28;19920;-48
2021/09/30 04:13:10;;;;;;;;;;;20.10;47.40;;;;;;8429573;28;19924;-48
2021/09/30 04:17:13;;;;;;;;;;;20.10;47.50;;;;;;8429357;28;21301;-48
2021/09/30 04:21:13;;;;;;;;;;;20.10;47.50;;;;;;8430736;28;19912;-49
2021/09/30 04:25:14;;;;;;;;;;;20.10;47.50;;;;;;8429908;28;19923;-48
2021/09/30 04:29:14;;;;;;;;;;;20.10;47.40;;;;;;8430018;28;20005;-48
2021/09/30 04:33:15;;;;;;;;;;;20.10;47.40;;;;;;8429953;28;19930;-49
2021/09/30 04:37:16;;;;;;;;;;;20.10;47.40;;;;;;8429286;28;20059;-48
2021/09/30 04:41:17;;;;;;;;;;;20.10;47.50;;;;;;8429815;28;19916;-48
2021/09/30 04:45:17;;;;;;;;;;;20.10;47.50;;;;;;8429879;28;19924;-47
2021/09/30 04:49:18;;;;;;;;;;;20.10;47.40;;;;;;8428996;28;19920;-48
2021/09/30 04:53:18;;;;;;;;;;;20.10;47.40;;;;;;8429571;28;19927;-49
2021/09/30 04:57:18;;;;;;;;;;;20.00;47.30;;;;;;8430079;28;19912;-49
2021/09/30 05:01:19;;;;;;;;;;;20.00;47.30;;;;;;8428900;28;19916;-49
2021/09/30 05:05:19;;;;;;;;;;;20.00;47.30;;;;;;8429239;28;19922;-49
2021/09/30 05:09:22;;;;;;;;;;;20.00;47.30;;;;;;8429267;28;20315;-51
2021/09/30 05:13:25;;;;;;;;;;;20.00;47.30;;;;;;8429679;28;20015;-53
2021/09/30 05:17:25;;;;;;;;;;;20.00;47.30;;;;;;8402015;28;19916;-49
2021/09/30 05:21:27;;;;;;;;;;;20.00;47.30;;;;;;8395625;28;19931;-53
2021/09/30 05:25:27;;;;;;;;;;;20.00;47.40;;;;;;8395044;28;19916;-49
2021/09/30 05:29:28;;;;;;;;;;;20.00;47.30;;;;;;8396162;28;19935;-48
2021/09/30 05:33:28;;;;;;;;;;;20.00;47.30;;;;;;8395368;28;20400;-47
2021/09/30 05:37:29;;;;;;;;;;;20.00;47.30;;;;;;8394993;28;19916;-47
2021/09/30 05:41:32;;;;;;;;;;;20.00;47.30;;;;;;8395240;28;19917;-49
2021/09/30 05:45:37;;;;;;;;;;;20.00;47.30;;;;;;8395302;28;19912;-48
2021/09/30 05:49:37;;;;;;;;;;;19.90;47.20;;;;;;8398734;28;19924;-49
2021/09/30 05:53:37;;;;;;;;;;;19.90;47.30;;;;;;8401088;28;19925;-49
2021/09/30 05:57:38;;;;;;;;;;;19.90;47.30;;;;;;8401021;28;20374;-48
2021/09/30 06:10:22;;;;;;;;;;;19.90;47.20;;;;;;8398528;28;19938;-48
2021/09/30 06:14:25;;;;;;;;;;;19.90;47.20;;;;;;8391847;28;19977;-48
2021/09/30 06:18:26;;;;;;;;;;;20.00;47.20;;;;;;8381048;28;19917;-50
2021/09/30 06:22:26;;;;;;;;;;;20.00;47.10;;;;;;8366869;28;19947;-49
2021/09/30 06:26:28;;;;;;;;;;;20.00;47.10;;;;;;8367691;28;19924;-48
2021/09/30 06:30:29;;;;;;;;;;;20.00;47.10;;;;;;8366747;28;19923;-49
2021/09/30 06:34:30;;;;;;;;;;;20.00;47.10;;;;;;8366107;28;19928;-49
2021/09/30 06:38:30;;;;;;;;;;;19.90;47.00;;;;;;8366460;28;19940;-48
2021/09/30 06:42:31;;;;;;;;;;;19.90;47.10;;;;;;8378687;28;20289;-48
2021/09/30 06:46:31;;;;;;;;;;;19.90;45.10;;;;;;8396480;28;20357;-48
2021/09/30 06:50:32;;;;;;;;;;;19.60;43.00;;;;;;8394101;28;20421;-47
2021/09/30 06:54:33;;;;;;;;;;;19.40;42.00;;;;;;8385050;28;19974;-49
2021/09/30 06:58:40;;;;;;;;;;;19.20;41.80;;;;;;8365601;28;19921;-49
2021/09/30 07:02:41;;;;;;;;;;;19.00;41.70;;;;;;8384180;28;20334;-52
2021/09/30 07:06:42;;;;;;;;;;;18.90;44.60;;;;;;8390322;28;19962;-54
2021/09/30 07:10:42;;;;;;;;;;;19.10;45.20;;;;;;8383153;28;19928;-54
2021/09/30 07:14:43;;;;;;;;;;;19.20;45.10;;;;;;8389320;28;19929;-51
2021/09/30 07:18:43;;;;;;;;;;;19.30;44.90;;;;;;8394246;28;19924;-51
2021/09/30 07:22:44;;;;;;;;;;;19.30;44.70;;;;;;8365870;28;19963;-52
2021/09/30 07:26:45;;;;;;;;;;;19.30;45.10;;;;;;8365040;28;20012;-52
2021/09/30 07:30:46;;;;;;;;;;;19.30;44.60;;;;;;8365014;28;19920;-49
2021/09/30 07:34:47;;;;;;;;;;;19.40;44.50;;;;;;8364420;28;19928;-50
2021/09/30 07:38:47;;;;;;;;;;;19.40;44.60;;;;;;8365896;28;19999;-52
2021/09/30 07:42:48;;;;;;;;;;;19.50;44.70;;;;;;8364686;28;19991;-50
2021/09/30 07:46:48;;;;;;;;;;;19.50;44.70;;;;;;8364096;28;19923;-50
2021/09/30 07:50:49;;;;;;;;;;;19.50;44.80;;;;;;8364397;28;20003;-50
2021/09/30 07:54:49;;;;;;;;;;;19.50;44.90;;;;;;8365094;28;20350;-49
2021/09/30 07:58:50;;;;;;;;;;;19.50;45.00;;;;;;8363852;28;19944;-49
2021/09/30 08:02:50;;;;;;;;;;;19.60;45.10;;;;;;8364437;28;19916;-49
2021/09/30 08:06:51;;;;;;;;;;;19.50;45.10;;;;;;8364051;28;20375;-50
2021/09/30 08:10:51;;;;;;;;;;;19.50;45.20;;;;;;8391165;28;19920;-53
2021/09/30 08:14:52;;;;;;;;;;;19.60;45.30;;;;;;8364338;28;19925;-53
2021/09/30 08:18:53;;;;;;;;;;;19.60;45.30;;;;;;8363600;28;19921;-49
2021/09/30 08:22:54;;;;;;;;;;;19.60;45.40;;;;;;8363373;28;20341;-50
2021/09/30 08:26:55;;;;;;;;;;;19.60;45.40;;;;;;8369130;28;20296;-51
2021/09/30 08:30:55;;;;;;;;;;;19.60;45.40;;;;;;8388293;28;19913;-50
2021/09/30 08:34:56;;;;;;;;;;;19.60;45.40;;;;;;8396017;28;19960;-50
2021/09/30 08:38:57;;;;;;;;;;;19.60;45.40;;;;;;8396414;28;20358;-51
2021/09/30 08:42:57;;;;;;;;;;;19.60;45.50;;;;;;8396412;28;20465;-52
2021/09/30 08:46:57;;;;;;;;;;;19.60;45.50;;;;;;8396597;28;19913;-51
2021/09/30 08:50:58;;;;;;;;;;;19.60;45.50;;;;;;8396374;28;19920;-51
2021/09/30 08:54:58;;;;;;;;;;;19.60;45.60;;;;;;8396268;28;19931;-50
2021/09/30 08:59:12;;;;;;;;;;;19.60;45.60;;;;;;8395605;28;19923;-52
2021/09/30 09:03:13;;;;;;;;;;;19.60;45.60;;;;;;8396032;28;19970;-50
2021/09/30 09:07:14;;;;;;;;;;;19.70;45.70;;;;;;8396243;28;20428;-50
2021/09/30 09:11:17;;;;;;;;;;;19.70;45.60;;;;;;8396241;28;19927;-51
2021/09/30 09:15:17;;;;;;;;;;;19.70;45.70;;;;;;8396033;28;20023;-53
2021/09/30 09:19:27;;;;;;;;;;;19.70;45.70;;;;;;8395337;28;19920;-52
2021/09/30 09:23:27;;;;;;;;;;;19.70;45.70;;;;;;8398228;28;19966;-52
2021/09/30 09:27:42;;;;;;;;;;;19.70;45.70;;;;;;8402069;28;19924;-50
2021/09/30 09:31:44;;;;;;;;;;;19.70;45.70;;;;;;8401412;28;19920;-51
2021/09/30 09:35:46;;;;;;;;;;;19.80;45.70;;;;;;8402013;28;19925;-50
2021/09/30 09:39:47;;;;;;;;;;;19.80;45.80;;;;;;8401904;28;19913;-52
2021/09/30 09:43:48;;;;;;;;;;;19.80;45.70;;;;;;8402482;28;19916;-52
2021/09/30 09:47:49;;;;;;;;;;;19.80;45.80;;;;;;8401263;28;19922;-50
2021/09/30 09:51:52;;;;;;;;;;;19.80;45.70;;;;;;8401251;28;20270;-53
2021/09/30 09:55:52;;;;;;;;;;;19.80;45.70;;;;;;8400649;28;19924;-50
2021/09/30 09:59:54;;;;;;;;;;;19.80;45.70;;;;;;8402238;28;19923;-51
2021/09/30 10:03:57;;;;;;;;;;;19.80;45.70;;;;;;8400667;28;19944;-51
2021/09/30 10:07:58;;;;;;;;;;;19.80;45.70;;;;;;8400569;28;20064;-52
2021/09/30 10:11:58;;;;;;;;;;;19.90;45.80;;;;;;8399895;28;19924;-51
2021/09/30 10:15:59;;;;;;;;;;;19.90;45.70;;;;;;8400578;28;20363;-52
2021/09/30 10:19:59;;;;;;;;;;;19.90;45.70;;;;;;8400858;28;19920;-50
2021/09/30 10:24:02;;;;;;;;;;;19.90;45.80;;;;;;8400513;28;19916;-50
2021/09/30 10:28:06;;;;;;;;;;;19.90;45.70;;;;;;8400447;28;20365;-51
2021/09/30 10:32:08;;;;;;;;;;;19.90;45.70;;;;;;8399741;28;19917;-53
2021/09/30 10:36:26;;;;;;;;;;;20.00;45.80;;;;;;8399563;28;19921;-51
2021/09/30 10:40:27;;;;;;;;;;;20.00;45.70;;;;;;8399447;28;19970;-50
2021/09/30 10:44:33;;;;;;;;;;;20.00;45.70;;;;;;8399783;28;19917;-52
2021/09/30 10:48:34;;;;;;;;;;;20.00;45.70;;;;;;8400964;28;19969;-50
2021/09/30 10:52:47;;;;;;;;;;;20.00;45.70;;;;;;8398798;28;19924;-51
2021/09/30 10:56:50;;;;;;;;;;;20.00;45.60;;;;;;8400093;28;20010;-51
2021/09/30 11:00:51;;;;;;;;;;;20.00;45.60;;;;;;8399322;28;19923;-50
2021/09/30 11:05:10;;;;;;;;;;;20.00;45.60;;;;;;8398668;28;19916;-52
2021/09/30 11:09:15;;;;;;;;;;;20.00;45.60;;;;;;8398923;28;19920;-52
2021/09/30 11:13:17;;;;;;;;;;;20.00;45.60;;;;;;8398397;28;19929;-51
2021/09/30 11:17:35;;;;;;;;;;;20.10;45.60;;;;;;8399693;28;19919;-53
2021/09/30 11:21:37;;;;;;;;;;;20.10;45.60;;;;;;8398575;28;19917;-54
2021/09/30 11:25:56;;;;;;;;;;;20.10;45.60;;;;;;8398006;28;19924;-50
2021/09/30 11:30:17;;;;;;;;;;;20.10;45.60;;;;;;8398608;28;20449;-53
2021/09/30 11:34:18;;;;;;;;;;;20.10;45.60;;;;;;8396867;28;19970;-51
2021/09/30 11:38:19;;;;;;;;;;;20.10;45.50;;;;;;8398834;28;20377;-53
2021/09/30 11:42:20;;;;;;;;;;;20.10;45.50;;;;;;8397721;28;20019;-52
2021/09/30 11:46:24;;;;;;;;;;;20.20;45.60;;;;;;8396991;28;19916;-54
2021/09/30 11:50:28;;;;;;;;;;;20.20;45.60;;;;;;8397965;28;19916;-52
2021/09/30 11:54:35;;;;;;;;;;;20.20;45.60;;;;;;8398240;28;19921;-53
2021/09/30 11:58:35;;;;;;;;;;;20.20;45.50;;;;;;8397448;28;19917;-53
2021/09/30 12:02:36;;;;;;;;;;;20.20;45.50;;;;;;8397182;28;20395;-54
2021/09/30 12:06:46;;;;;;;;;;;20.20;45.50;;;;;;8397137;28;19939;-51
2021/09/30 12:10:56;;;;;;;;;;;20.30;45.50;;;;;;8396875;28;19927;-51
2021/09/30 12:14:57;;;;;;;;;;;20.20;45.50;;;;;;8397544;28;19952;-53
2021/09/30 12:18:58;;;;;;;;;;;20.20;45.50;;;;;;8396993;28;19917;-53
2021/09/30 12:23:00;;;;;;;;;;;20.20;45.50;;;;;;8396349;28;19916;-51
2021/09/30 12:27:04;;;;;;;;;;;20.30;45.50;;;;;;8396999;28;19935;-52
2021/09/30 12:31:05;;;;;;;;;;;20.30;45.40;;;;;;8396729;28;20023;-53
2021/09/30 12:35:26;;;;;;;;;;;20.30;45.40;;;;;;8397071;28;19948;-54
2021/09/30 12:39:31;;;;;;;;;;;20.30;45.40;;;;;;8396028;28;19916;-50
2021/09/30 12:43:32;;;;;;;;;;;20.30;45.30;;;;;;8396014;28;19916;-53
2021/09/30 12:47:34;;;;;;;;;;;20.30;45.30;;;;;;8396297;28;20285;-53
2021/09/30 12:51:35;;;;;;;;;;;20.30;45.30;;;;;;8397155;28;20003;-54
2021/09/30 12:55:36;;;;;;;;;;;20.30;45.30;;;;;;8395514;28;19925;-53
2021/09/30 12:59:37;;;;;;;;;;;20.30;45.30;;;;;;8400319;28;19996;-53
2021/09/30 13:03:38;;;;;;;;;;;20.30;45.30;;;;;;8402814;28;19912;-53
2021/09/30 13:07:46;;;;;;;;;;;20.40;45.20;;;;;;8401010;28;19924;-53
2021/09/30 13:11:50;;;;;;;;;;;20.40;45.20;;;;;;8402901;28;20374;-54
2021/09/30 13:15:51;;;;;;;;;;;20.40;45.30;;;;;;8402604;28;19935;-51
2021/09/30 13:19:52;;;;;;;;;;;20.40;45.30;;;;;;8401979;28;19916;-51
2021/09/30 13:23:53;;;;;;;;;;;20.40;45.20;;;;;;8402650;28;19912;-50
2021/09/30 13:27:53;;;;;;;;;;;20.40;45.20;;;;;;8402676;28;20366;-50
2021/09/30 13:31:54;;;;;;;;;;;20.40;45.20;;;;;;8401351;28;20011;-53
2021/09/30 13:35:54;;;;;;;;;;;20.40;45.30;;;;;;8401805;28;19931;-51
2021/09/30 13:40:00;;;;;;;;;;;20.40;45.10;;;;;;8401539;28;19916;-54
2021/09/30 13:44:01;;;;;;;;;;;20.40;45.20;;;;;;8401176;28;19942;-52
2021/09/30 13:48:02;;;;;;;;;;;20.40;45.20;;;;;;8401932;28;19916;-50
2021/09/30 13:52:02;;;;;;;;;;;20.40;45.10;;;;;;8401449;28;19921;-49
2021/09/30 13:56:03;;;;;;;;;;;20.40;45.20;;;;;;8400757;28;20396;-50
2021/09/30 14:00:04;;;;;;;;;;;20.40;45.10;;;;;;8400988;28;20373;-51
2021/09/30 14:04:05;;;;;;;;;;;20.40;45.10;;;;;;8401580;28;19913;-49
2021/09/30 14:08:05;;;;;;;;;;;20.40;45.10;;;;;;8400218;28;19920;-52
2021/09/30 14:12:06;;;;;;;;;;;20.40;45.10;;;;;;8400862;28;19920;-51
2021/09/30 14:16:07;;;;;;;;;;;20.40;45.10;;;;;;8400052;28;20365;-50
2021/09/30 14:20:08;;;;;;;;;;;20.40;45.10;;;;;;8401143;28;20304;-50
2021/09/30 14:24:09;;;;;;;;;;;20.40;45.10;;;;;;8400871;28;20362;-53
2021/09/30 14:28:09;;;;;;;;;;;20.50;45.20;;;;;;8399828;28;19912;-52
2021/09/30 14:32:11;;;;;;;;;;;20.40;45.10;;;;;;8400085;28;19916;-49
2021/09/30 14:36:12;;;;;;;;;;;20.50;45.20;;;;;;8399761;28;19940;-50
2021/09/30 14:40:13;;;;;;;;;;;20.50;45.20;;;;;;8400191;28;19916;-53
2021/09/30 14:44:13;;;;;;;;;;;20.50;45.20;;;;;;8399865;28;19921;-50
2021/09/30 14:48:14;;;;;;;;;;;20.50;45.20;;;;;;8399608;28;20333;-50
2021/09/30 14:52:15;;;;;;;;;;;20.50;45.20;;;;;;8398901;28;19978;-52
2021/09/30 14:56:15;;;;;;;;;;;20.50;45.20;;;;;;8400415;28;19924;-50
2021/09/30 15:00:15;;;;;;;;;;;20.50;45.20;;;;;;8399321;28;19920;-53
2021/09/30 15:04:16;;;;;;;;;;;20.50;45.20;;;;;;8398861;28;19913;-50
2021/09/30 15:08:17;;;;;;;;;;;20.50;45.20;;;;;;8389251;28;19978;-52
2021/09/30 15:12:17;;;;;;;;;;;20.50;45.10;;;;;;8366046;28;19935;-52
2021/09/30 15:16:19;;;;;;;;;;;20.50;45.10;;;;;;8365799;28;19925;-51
2021/09/30 15:24:39;;;;;;;;;;;20.50;45.10;;;;;;8370088;28;19913;-52
2021/09/30 15:28:39;;;;;;;;;;;20.50;45.00;;;;;;8364889;28;19920;-51
2021/09/30 15:32:40;;;;;;;;;;;20.50;45.10;;;;;;8365947;28;19917;-52
2021/09/30 15:36:40;;;;;;;;;;;20.50;45.10;;;;;;8365070;28;20019;-50
2021/09/30 15:40:41;;;;;;;;;;;20.50;45.10;;;;;;8364564;28;20332;-50
2021/09/30 15:44:41;;;;;;;;;;;20.50;45.10;;;;;;8364926;28;19924;-51
2021/09/30 15:48:42;;;;;;;;;;;20.50;45.10;;;;;;8364351;28;19913;-51
2021/09/30 15:52:43;;;;;;;;;;;20.50;45.00;;;;;;8364559;28;20425;-51
2021/09/30 15:56:43;;;;;;;;;;;20.50;45.10;;;;;;8364351;28;19966;-50
2021/09/30 16:00:44;;;;;;;;;;;20.50;45.10;;;;;;8364530;28;19920;-50
2021/09/30 16:04:46;;;;;;;;;;;20.50;45.10;;;;;;8363730;28;19924;-52
2021/09/30 16:08:46;;;;;;;;;;;20.50;45.10;;;;;;8390778;28;19967;-51
2021/09/30 16:12:47;;;;;;;;;;;20.50;45.10;;;;;;8385061;28;20476;-50
2021/09/30 16:16:47;;;;;;;;;;;20.40;45.10;;;;;;8390094;28;20293;-52
2021/09/30 16:20:48;;;;;;;;;;;20.40;45.10;;;;;;8378619;28;19917;-51
2021/09/30 16:24:49;;;;;;;;;;;20.50;45.10;;;;;;8394226;28;19924;-53
2021/09/30 16:28:57;;;;;;;;;;;20.40;45.10;;;;;;8371143;28;19923;-54
2021/09/30 16:32:57;;;;;;;;;;;20.50;45.10;;;;;;8372661;28;19978;-52
2021/09/30 16:36:58;;;;;;;;;;;20.40;45.20;;;;;;8363373;28;20258;-52
2021/09/30 16:40:58;;;;;;;;;;;20.40;45.20;;;;;;8365860;28;19967;-53
2021/09/30 16:45:03;;;;;;;;;;;20.40;45.20;;;;;;8363671;28;19979;-53
2021/09/30 16:49:04;;;;;;;;;;;20.40;45.30;;;;;;8361931;28;20292;-50
2021/09/30 16:53:04;;;;;;;;;;;20.40;45.30;;;;;;8373926;28;19932;-51
2021/09/30 16:57:05;;;;;;;;;;;20.40;45.30;;;;;;8387428;28;19928;-53
2021/09/30 17:01:06;;;;;;;;;;;20.40;45.30;;;;;;8382222;28;19927;-52
2021/09/30 17:05:06;;;;;;;;;;;20.40;45.30;;;;;;8422742;28;19916;-51
2021/09/30 17:09:07;;;;;;;;;;;20.40;45.30;;;;;;8386697;28;20294;-53
2021/09/30 17:13:07;;;;;;;;;;;20.40;45.40;;;;;;8362070;28;19925;-51
2021/09/30 17:17:08;;;;;;;;;;;20.40;45.40;;;;;;8365139;28;19923;-52
2021/09/30 17:21:09;;;;;;;;;;;20.40;45.40;;;;;;8363130;28;19947;-54
2021/09/30 17:25:10;;;;;;;;;;;20.30;46.00;;;;;;8362045;28;19956;-52
2021/09/30 17:29:10;;;;;;;;;;;20.30;45.40;;;;;;8362439;28;19917;-51
2021/09/30 17:33:11;;;;;;;;;;;20.30;45.40;;;;;;8362406;28;19924;-51
2021/09/30 17:37:11;;;;;;;;;;;20.30;45.40;;;;;;8362620;28;19913;-50
2021/09/30 17:41:11;;;;;;;;;;;20.30;45.50;;;;;;8362027;28;19917;-48
2021/09/30 17:45:12;;;;;;;;;;;20.30;45.50;;;;;;8364609;28;19917;-49
2021/09/30 17:49:12;;;;;;;;;;;20.30;45.50;;;;;;8367302;28;20374;-52
2021/09/30 17:53:14;;;;;;;;;;;20.30;45.50;;;;;;8368722;28;20366;-51
2021/09/30 17:57:15;;;;;;;;;;;20.30;45.50;;;;;;8392908;28;20266;-51
2021/09/30 18:01:15;;;;;;;;;;;20.30;45.50;;;;;;8398910;28;19916;-52
2021/09/30 18:05:17;;;;;;;;;;;20.30;45.50;;;;;;8388665;28;19923;-51
2021/09/30 18:09:18;;;;;;;;;;;20.30;45.50;;;;;;8393882;28;20091;-49
2021/09/30 18:13:19;;;;;;;;;;;20.30;45.50;;;;;;8371286;28;20019;-49
2021/09/30 18:17:19;;;;;;;;;;;20.30;45.50;;;;;;8378927;28;19916;-49
2021/09/30 18:21:20;;;;;;;;;;;20.30;45.50;;;;;;8384181;28;20329;-50
2021/09/30 18:25:21;;;;;;;;;;;20.20;45.40;;;;;;8367047;28;20288;-50
2021/09/30 18:29:22;;;;;;;;;;;20.20;45.50;;;;;;8368231;28;19919;-53
2021/09/30 18:33:22;;;;;;;;;;;20.20;45.50;;;;;;8378139;28;19925;-50
2021/09/30 18:37:23;;;;;;;;;;;20.20;45.50;;;;;;8379691;28;19956;-50
2021/09/30 18:41:24;;;;;;;;;;;20.20;45.50;;;;;;8366613;28;19944;-49
2021/09/30 18:45:24;;;;;;;;;;;20.20;45.50;;;;;;8366769;28;20344;-53
2021/09/30 18:49:25;;;;;;;;;;;20.20;45.50;;;;;;8366104;28;19916;-51
2021/09/30 18:53:25;;;;;;;;;;;20.20;45.50;;;;;;8366281;28;20118;-52
2021/09/30 18:57:26;;;;;;;;;;;20.20;45.50;;;;;;8365438;28;19917;-52
2021/09/30 19:01:29;;;;;;;;;;;20.20;45.50;;;;;;8368413;28;20028;-52
2021/09/30 19:05:33;;;;;;;;;;;20.20;45.50;;;;;;8399981;28;19912;-52
2021/09/30 19:09:34;;;;;;;;;;;20.20;46.00;;;;;;8398896;28;19925;-51
2021/09/30 19:13:35;;;;;;;;;;;20.20;45.50;;;;;;8398034;28;19931;-51
2021/09/30 19:17:39;;;;;;;;;;;20.20;45.50;;;;;;8390712;28;19940;-53
2021/09/30 19:21:40;;;;;;;;;;;20.20;45.50;;;;;;8364572;28;19913;-51
2021/09/30 19:25:40;;;;;;;;;;;20.20;45.50;;;;;;8364969;28;19931;-49
2021/09/30 19:29:40;;;;;;;;;;;20.20;45.50;;;;;;8365232;28;20374;-50
2021/09/30 19:33:41;;;;;;;;;;;20.10;45.40;;;;;;8364783;28;19924;-50
2021/09/30 19:37:41;;;;;;;;;;;20.20;45.50;;;;;;8363298;28;19920;-50
2021/09/30 19:41:42;;;;;;;;;;;20.10;45.50;;;;;;8365626;28;19967;-52
2021/09/30 19:45:43;;;;;;;;;;;20.10;45.40;;;;;;8364224;28;19917;-52
2021/09/30 19:49:44;;;;;;;;;;;20.10;45.40;;;;;;8363871;28;19967;-53
2021/09/30 19:53:44;;;;;;;;;;;20.10;45.50;;;;;;8364632;28;20314;-50
2021/09/30 19:57:45;;;;;;;;;;;20.10;45.50;;;;;;8365355;28;19919;-50
2021/09/30 20:01:45;;;;;;;;;;;20.10;45.40;;;;;;8363852;28;20059;-50
2021/09/30 20:05:46;;;;;;;;;;;20.10;45.40;;;;;;8409740;28;20288;-52
2021/09/30 20:09:46;;;;;;;;;;;20.10;45.50;;;;;;8411049;28;19920;-50
2021/09/30 20:13:47;;;;;;;;;;;20.10;45.50;;;;;;8364080;28;19943;-48
2021/09/30 20:17:47;;;;;;;;;;;20.10;45.50;;;;;;8373343;28;19917;-50
2021/09/30 20:21:48;;;;;;;;;;;20.00;45.40;;;;;;8382793;28;19916;-49
2021/09/30 20:25:48;;;;;;;;;;;20.00;45.40;;;;;;8380605;28;19917;-50
2021/09/30 20:29:50;;;;;;;;;;;20.00;45.40;;;;;;8367387;28;19927;-51
2021/09/30 20:33:50;;;;;;;;;;;20.00;45.40;;;;;;8397548;28;19920;-51
2021/09/30 20:37:51;;;;;;;;;;;20.00;45.40;;;;;;8396289;28;19917;-50
2021/09/30 20:41:52;;;;;;;;;;;20.00;45.40;;;;;;8396572;28;19943;-51
2021/09/30 20:45:53;;;;;;;;;;;20.00;45.40;;;;;;8396718;28;19917;-51
2021/09/30 20:49:53;;;;;;;;;;;20.00;45.40;;;;;;8396642;28;20359;-52
2021/09/30 20:53:54;;;;;;;;;;;20.00;45.40;;;;;;8396302;28;20301;-50
2021/09/30 20:57:54;;;;;;;;;;;20.00;45.40;;;;;;8396238;28;20015;-49
2021/09/30 21:01:55;;;;;;;;;;;20.00;45.40;;;;;;8395822;28;19924;-49
2021/09/30 21:05:57;;;;;;;;;;;20.00;45.40;;;;;;8396432;28;19912;-50
2021/09/30 21:09:57;;;;;;;;;;;20.00;45.50;;;;;;8397226;28;19921;-50
2021/09/30 21:13:58;;;;;;;;;;;20.00;45.40;;;;;;8395355;28;20359;-50
2021/09/30 21:17:59;;;;;;;;;;;20.00;45.40;;;;;;8396304;28;20316;-51
2021/09/30 21:21:59;;;;;;;;;;;19.90;45.40;;;;;;8401871;28;20380;-53
2021/09/30 21:25:59;;;;;;;;;;;19.90;45.40;;;;;;8402684;28;19947;-50
2021/09/30 21:30:00;;;;;;;;;;;19.90;45.40;;;;;;8402307;28;20425;-50
2021/09/30 21:34:02;;;;;;;;;;;19.90;45.40;;;;;;8402060;28;20288;-51
2021/09/30 21:38:02;;;;;;;;;;;19.90;45.40;;;;;;8401419;28;19916;-50
2021/09/30 21:42:03;;;;;;;;;;;19.90;45.40;;;;;;8402836;28;19991;-49
2021/09/30 21:46:04;;;;;;;;;;;19.90;45.40;;;;;;8401688;28;19952;-52
2021/09/30 21:50:05;;;;;;;;;;;19.90;45.40;;;;;;8401486;28;19920;-50
2021/09/30 21:54:05;;;;;;;;;;;19.90;45.40;;;;;;8401505;28;19982;-50
2021/09/30 21:58:06;;;;;;;;;;;19.90;45.40;;;;;;8401554;28;19913;-50
2021/09/30 22:02:08;;;;;;;;;;;19.80;45.30;;;;;;8401231;28;19919;-50
2021/09/30 22:06:08;;;;;;;;;;;19.80;45.30;;;;;;8375224;28;19925;-50
2021/09/30 22:10:09;;;;;;;;;;;19.80;45.30;;;;;;8367397;28;19921;-50
2021/09/30 22:14:10;;;;;;;;;;;19.80;45.40;;;;;;8367933;28;19925;-49
2021/09/30 22:18:11;;;;;;;;;;;19.80;45.40;;;;;;8368364;28;19990;-52
2021/09/30 22:22:11;;;;;;;;;;;19.80;45.40;;;;;;8367211;28;20100;-50
2021/09/30 22:26:12;;;;;;;;;;;19.80;45.40;;;;;;8367738;28;19916;-49
2021/09/30 22:30:12;;;;;;;;;;;19.80;45.40;;;;;;8367459;28;19917;-49
2021/09/30 22:34:12;;;;;;;;;;;19.80;45.30;;;;;;8367437;28;19927;-52
2021/09/30 22:38:13;;;;;;;;;;;19.80;45.40;;;;;;8367174;28;20366;-54
2021/09/30 22:42:14;;;;;;;;;;;19.80;45.40;;;;;;8367028;28;20007;-50
2021/09/30 22:46:14;;;;;;;;;;;19.80;45.40;;;;;;8366305;28;19917;-50
2021/09/30 22:50:15;;;;;;;;;;;19.80;45.40;;;;;;8366853;28;19968;-50
2021/09/30 22:54:19;;;;;;;;;;;19.70;45.40;;;;;;8367204;28;19921;-51
2021/09/30 22:58:19;;;;;;;;;;;19.70;45.30;;;;;;8365865;28;20011;-52
2021/09/30 23:02:20;;;;;;;;;;;19.70;45.30;;;;;;8366482;28;19924;-50
2021/09/30 23:06:20;;;;;;;;;;;19.70;45.40;;;;;;8366345;28;20011;-50
2021/09/30 23:10:21;;;;;;;;;;;19.70;45.30;;;;;;8366397;28;19921;-53
2021/09/30 23:14:21;;;;;;;;;;;19.70;45.30;;;;;;8365704;28;19924;-50
2021/09/30 23:18:22;;;;;;;;;;;19.70;45.40;;;;;;8365992;28;20378;-50
2021/09/30 23:22:22;;;;;;;;;;;19.70;45.40;;;;;;8365149;28;19917;-50
2021/09/30 23:26:23;;;;;;;;;;;19.70;45.40;;;;;;8365638;28;19927;-52
2021/09/30 23:30:23;;;;;;;;;;;19.70;45.40;;;;;;8366138;28;19959;-50
2021/09/30 23:34:24;;;;;;;;;;;19.60;45.30;;;;;;8364795;28;19925;-50
2021/09/30 23:38:24;;;;;;;;;;;19.60;45.30;;;;;;8365383;28;20432;-50
2021/09/30 23:42:24;;;;;;;;;;;19.60;45.30;;;;;;8364443;28;19928;-50
2021/09/30 23:46:25;;;;;;;;;;;19.60;45.30;;;;;;8365198;28;19920;-50
2021/09/30 23:50:25;;;;;;;;;;;19.60;45.30;;;;;;8364902;28;19917;-50
2021/09/30 23:54:26;;;;;;;;;;;19.60;45.40;;;;;;8364593;28;19925;-50
2021/09/30 23:58:26;;;;;;;;;;;19.60;45.40;;;;;;8364003;28;19925;-51
